sensor_id;sensor_type;location;lat;lon;timestamp;P1;durP1;ratioP1;P2;durP2;ratioP2
2940;SDS011;1480;51.456;6.670;2024-01-15T00:00:09;32.83;;;14.20;;
2940;SDS011;1480;51.456;6.670;2024-01-15T00:02:36;30.00;;;13.83;;
2940;SDS011;1480;51.456;6.670;2024-01-15T00:05:05;31.40;;;12.50;;
2940;SDS011;1480;51.456;6.670;2024-01-15T00:07:31;25.37;;;12.83;;
2940;SDS011;1480;51.456;6.670;2024-01-15T00:09:58;31.63;;;13.37;;
2940;SDS011;1480;51.456;6.670;2024-01-15T00:12:25;34.33;;;13.73;;
2940;SDS011;1480;51.456;6.670;2024-01-15T00:14:52;28.77;;;12.50;;
2940;SDS011;1480;51.456;6.670;2024-01-15T00:17:18;27.33;;;12.90;;
2940;SDS011;1480;51.456;6.670;2024-01-15T00:19:45;30.03;;;12.53;;
2940;SDS011;1480;51.456;6.670;2024-01-15T00:22:13;26.37;;;11.67;;
2940;SDS011;1480;51.456;6.670;2024-01-15T00:24:40;25.00;;;10.47;;
2940;SDS011;1480;51.456;6.670;2024-01-15T00:27:06;23.67;;;11.17;;
2940;SDS011;1480;51.456;6.670;2024-01-15T00:29:33;20.43;;;10.13;;
2940;SDS011;1480;51.456;6.670;2024-01-15T00:31:59;17.47;;;10.43;;
2940;SDS011;1480;51.456;6.670;2024-01-15T00:34:26;23.30;;;10.40;;
2940;SDS011;1480;51.456;6.670;2024-01-15T00:36:53;23.67;;;10.50;;
2940;SDS011;1480;51.456;6.670;2024-01-15T00:39:21;25.30;;;11.57;;
2940;SDS011;1480;51.456;6.670;2024-01-15T00:41:48;30.57;;;12.70;;
2940;SDS011;1480;51.456;6.670;2024-01-15T00:44:14;32.03;;;11.80;;
2940;SDS011;1480;51.456;6.670;2024-01-15T00:46:42;24.10;;;13.23;;
2940;SDS011;1480;51.456;6.670;2024-01-15T00:49:09;24.67;;;12.30;;
2940;SDS011;1480;51.456;6.670;2024-01-15T00:51:36;21.83;;;11.57;;
2940;SDS011;1480;51.456;6.670;2024-01-15T00:54:03;25.93;;;12.97;;
2940;SDS011;1480;51.456;6.670;2024-01-15T00:56:31;30.30;;;12.57;;
2940;SDS011;1480;51.456;6.670;2024-01-15T00:58:58;22.53;;;13.83;;
2940;SDS011;1480;51.456;6.670;2024-01-15T01:01:25;29.67;;;13.33;;
2940;SDS011;1480;51.456;6.670;2024-01-15T01:03:51;27.07;;;13.57;;
2940;SDS011;1480;51.456;6.670;2024-01-15T01:06:18;32.20;;;11.07;;
2940;SDS011;1480;51.456;6.670;2024-01-15T01:08:44;34.50;;;15.07;;
2940;SDS011;1480;51.456;6.670;2024-01-15T01:11:12;25.00;;;12.50;;
2940;SDS011;1480;51.456;6.670;2024-01-15T01:13:40;34.03;;;12.87;;
2940;SDS011;1480;51.456;6.670;2024-01-15T01:16:07;29.13;;;14.80;;
2940;SDS011;1480;51.456;6.670;2024-01-15T01:18:34;32.60;;;13.40;;
2940;SDS011;1480;51.456;6.670;2024-01-15T01:21:01;20.90;;;13.70;;
2940;SDS011;1480;51.456;6.670;2024-01-15T01:23:28;24.53;;;15.20;;
2940;SDS011;1480;51.456;6.670;2024-01-15T01:25:54;36.93;;;16.60;;
2940;SDS011;1480;51.456;6.670;2024-01-15T01:28:21;30.67;;;13.80;;
2940;SDS011;1480;51.456;6.670;2024-01-15T01:30:49;28.23;;;12.63;;
2940;SDS011;1480;51.456;6.670;2024-01-15T01:33:16;26.93;;;15.13;;
2940;SDS011;1480;51.456;6.670;2024-01-15T01:35:42;28.97;;;14.40;;
2940;SDS011;1480;51.456;6.670;2024-01-15T01:38:10;29.70;;;13.83;;
2940;SDS011;1480;51.456;6.670;2024-01-15T01:40:36;27.90;;;14.10;;
2940;SDS011;1480;51.456;6.670;2024-01-15T01:43:04;30.70;;;13.07;;
2940;SDS011;1480;51.456;6.670;2024-01-15T01:45:31;22.87;;;11.90;;
2940;SDS011;1480;51.456;6.670;2024-01-15T01:47:59;28.13;;;11.87;;
2940;SDS011;1480;51.456;6.670;2024-01-15T01:50:25;27.13;;;14.27;;
2940;SDS011;1480;51.456;6.670;2024-01-15T01:52:52;26.23;;;13.43;;
2940;SDS011;1480;51.456;6.670;2024-01-15T01:55:19;20.23;;;11.60;;
2940;SDS011;1480;51.456;6.670;2024-01-15T01:57:46;24.83;;;13.10;;
2940;SDS011;1480;51.456;6.670;2024-01-15T02:00:13;25.57;;;12.00;;
2940;SDS011;1480;51.456;6.670;2024-01-15T02:02:41;26.33;;;13.33;;
2940;SDS011;1480;51.456;6.670;2024-01-15T02:05:10;21.17;;;11.00;;
2940;SDS011;1480;51.456;6.670;2024-01-15T02:07:39;24.00;;;13.20;;
2940;SDS011;1480;51.456;6.670;2024-01-15T02:10:06;24.73;;;11.10;;
2940;SDS011;1480;51.456;6.670;2024-01-15T02:12:34;27.13;;;11.00;;
2940;SDS011;1480;51.456;6.670;2024-01-15T02:15:01;19.90;;;10.10;;
2940;SDS011;1480;51.456;6.670;2024-01-15T02:17:28;25.37;;;10.93;;
2940;SDS011;1480;51.456;6.670;2024-01-15T02:19:54;22.20;;;11.83;;
2940;SDS011;1480;51.456;6.670;2024-01-15T02:22:22;23.27;;;10.33;;
2940;SDS011;1480;51.456;6.670;2024-01-15T02:24:50;17.80;;;9.63;;
2940;SDS011;1480;51.456;6.670;2024-01-15T02:27:17;24.53;;;10.00;;
2940;SDS011;1480;51.456;6.670;2024-01-15T02:29:44;18.50;;;9.47;;
2940;SDS011;1480;51.456;6.670;2024-01-15T02:32:11;22.87;;;10.20;;
2940;SDS011;1480;51.456;6.670;2024-01-15T02:34:38;28.60;;;10.93;;
2940;SDS011;1480;51.456;6.670;2024-01-15T02:37:04;24.13;;;11.40;;
2940;SDS011;1480;51.456;6.670;2024-01-15T02:39:31;17.47;;;9.93;;
2940;SDS011;1480;51.456;6.670;2024-01-15T02:41:59;20.93;;;10.83;;
2940;SDS011;1480;51.456;6.670;2024-01-15T02:44:26;17.57;;;9.10;;
2940;SDS011;1480;51.456;6.670;2024-01-15T02:46:52;15.87;;;9.50;;
2940;SDS011;1480;51.456;6.670;2024-01-15T02:49:19;20.53;;;9.20;;
2940;SDS011;1480;51.456;6.670;2024-01-15T02:51:46;17.17;;;10.30;;
2940;SDS011;1480;51.456;6.670;2024-01-15T02:54:13;23.73;;;9.13;;
2940;SDS011;1480;51.456;6.670;2024-01-15T02:56:39;16.20;;;8.93;;
2940;SDS011;1480;51.456;6.670;2024-01-15T02:59:07;17.63;;;8.73;;
2940;SDS011;1480;51.456;6.670;2024-01-15T03:01:34;13.70;;;7.10;;
2940;SDS011;1480;51.456;6.670;2024-01-15T03:04:00;16.40;;;8.27;;
2940;SDS011;1480;51.456;6.670;2024-01-15T03:06:27;12.47;;;7.03;;
2940;SDS011;1480;51.456;6.670;2024-01-15T03:08:54;13.00;;;6.40;;
2940;SDS011;1480;51.456;6.670;2024-01-15T03:11:20;14.33;;;7.20;;
2940;SDS011;1480;51.456;6.670;2024-01-15T03:13:47;12.13;;;6.77;;
2940;SDS011;1480;51.456;6.670;2024-01-15T03:16:15;13.20;;;6.67;;
2940;SDS011;1480;51.456;6.670;2024-01-15T03:18:42;19.23;;;7.70;;
2940;SDS011;1480;51.456;6.670;2024-01-15T03:21:08;15.00;;;7.73;;
2940;SDS011;1480;51.456;6.670;2024-01-15T03:23:35;13.30;;;7.37;;
2940;SDS011;1480;51.456;6.670;2024-01-15T03:26:03;12.67;;;7.90;;
2940;SDS011;1480;51.456;6.670;2024-01-15T03:28:30;14.43;;;7.33;;
2940;SDS011;1480;51.456;6.670;2024-01-15T03:30:57;10.60;;;7.13;;
2940;SDS011;1480;51.456;6.670;2024-01-15T03:33:25;14.43;;;7.30;;
2940;SDS011;1480;51.456;6.670;2024-01-15T03:35:51;15.00;;;7.80;;
2940;SDS011;1480;51.456;6.670;2024-01-15T03:38:18;11.60;;;7.33;;
2940;SDS011;1480;51.456;6.670;2024-01-15T03:40:44;14.10;;;7.43;;
2940;SDS011;1480;51.456;6.670;2024-01-15T03:43:12;14.87;;;6.90;;
2940;SDS011;1480;51.456;6.670;2024-01-15T03:45:38;13.73;;;7.90;;
2940;SDS011;1480;51.456;6.670;2024-01-15T03:48:05;16.93;;;7.53;;
2940;SDS011;1480;51.456;6.670;2024-01-15T03:50:33;12.07;;;7.00;;
2940;SDS011;1480;51.456;6.670;2024-01-15T03:53:00;20.33;;;8.03;;
2940;SDS011;1480;51.456;6.670;2024-01-15T03:55:27;17.10;;;8.93;;
2940;SDS011;1480;51.456;6.670;2024-01-15T03:57:53;25.53;;;9.30;;
2940;SDS011;1480;51.456;6.670;2024-01-15T04:00:20;14.00;;;8.93;;
2940;SDS011;1480;51.456;6.670;2024-01-15T04:02:47;14.23;;;8.10;;
2940;SDS011;1480;51.456;6.670;2024-01-15T04:05:13;16.40;;;9.70;;
2940;SDS011;1480;51.456;6.670;2024-01-15T04:07:41;16.23;;;8.40;;
2940;SDS011;1480;51.456;6.670;2024-01-15T04:10:08;18.07;;;8.00;;
2940;SDS011;1480;51.456;6.670;2024-01-15T04:12:35;21.40;;;11.20;;
2940;SDS011;1480;51.456;6.670;2024-01-15T04:15:02;21.30;;;10.37;;
2940;SDS011;1480;51.456;6.670;2024-01-15T04:17:29;17.00;;;10.57;;
2940;SDS011;1480;51.456;6.670;2024-01-15T04:19:55;15.93;;;10.60;;
2940;SDS011;1480;51.456;6.670;2024-01-15T04:22:22;19.60;;;9.07;;
2940;SDS011;1480;51.456;6.670;2024-01-15T04:24:50;14.53;;;10.10;;
2940;SDS011;1480;51.456;6.670;2024-01-15T04:27:17;15.63;;;9.50;;
2940;SDS011;1480;51.456;6.670;2024-01-15T04:29:44;16.87;;;10.37;;
2940;SDS011;1480;51.456;6.670;2024-01-15T04:32:10;16.40;;;7.87;;
2940;SDS011;1480;51.456;6.670;2024-01-15T04:34:37;19.70;;;10.10;;
2940;SDS011;1480;51.456;6.670;2024-01-15T04:37:03;13.40;;;9.30;;
2940;SDS011;1480;51.456;6.670;2024-01-15T04:39:30;13.60;;;7.40;;
2940;SDS011;1480;51.456;6.670;2024-01-15T04:41:58;13.70;;;7.80;;
2940;SDS011;1480;51.456;6.670;2024-01-15T04:44:25;14.80;;;7.17;;
2940;SDS011;1480;51.456;6.670;2024-01-15T04:46:51;13.97;;;7.93;;
2940;SDS011;1480;51.456;6.670;2024-01-15T04:49:18;20.80;;;8.13;;
2940;SDS011;1480;51.456;6.670;2024-01-15T04:51:45;12.97;;;7.37;;
2940;SDS011;1480;51.456;6.670;2024-01-15T04:54:11;14.20;;;6.17;;
2940;SDS011;1480;51.456;6.670;2024-01-15T04:56:42;14.13;;;7.57;;
2940;SDS011;1480;51.456;6.670;2024-01-15T04:59:10;10.97;;;7.10;;
2940;SDS011;1480;51.456;6.670;2024-01-15T05:01:37;18.17;;;8.77;;
2940;SDS011;1480;51.456;6.670;2024-01-15T05:04:04;18.33;;;7.97;;
2940;SDS011;1480;51.456;6.670;2024-01-15T05:06:30;14.47;;;7.73;;
2940;SDS011;1480;51.456;6.670;2024-01-15T05:08:57;12.10;;;8.17;;
2940;SDS011;1480;51.456;6.670;2024-01-15T05:11:24;10.60;;;6.20;;
2940;SDS011;1480;51.456;6.670;2024-01-15T05:13:51;15.80;;;8.27;;
2940;SDS011;1480;51.456;6.670;2024-01-15T05:16:19;13.23;;;7.40;;
2940;SDS011;1480;51.456;6.670;2024-01-15T05:18:46;14.80;;;9.23;;
2940;SDS011;1480;51.456;6.670;2024-01-15T05:21:12;15.00;;;8.13;;
2940;SDS011;1480;51.456;6.670;2024-01-15T05:23:39;8.70;;;7.27;;
2940;SDS011;1480;51.456;6.670;2024-01-15T05:26:06;14.60;;;8.03;;
2940;SDS011;1480;51.456;6.670;2024-01-15T05:28:34;11.53;;;7.10;;
2940;SDS011;1480;51.456;6.670;2024-01-15T05:31:00;16.23;;;8.23;;
2940;SDS011;1480;51.456;6.670;2024-01-15T05:33:29;14.00;;;9.20;;
2940;SDS011;1480;51.456;6.670;2024-01-15T05:35:56;10.17;;;6.40;;
2940;SDS011;1480;51.456;6.670;2024-01-15T05:38:24;15.43;;;7.30;;
2940;SDS011;1480;51.456;6.670;2024-01-15T05:40:50;12.07;;;7.13;;
2940;SDS011;1480;51.456;6.670;2024-01-15T05:43:17;7.73;;;5.93;;
2940;SDS011;1480;51.456;6.670;2024-01-15T05:45:44;12.37;;;6.87;;
2940;SDS011;1480;51.456;6.670;2024-01-15T05:48:10;13.10;;;6.37;;
2940;SDS011;1480;51.456;6.670;2024-01-15T05:50:38;11.07;;;7.40;;
2940;SDS011;1480;51.456;6.670;2024-01-15T05:53:05;16.00;;;6.50;;
2940;SDS011;1480;51.456;6.670;2024-01-15T05:55:32;16.00;;;6.83;;
2940;SDS011;1480;51.456;6.670;2024-01-15T05:57:58;10.33;;;5.53;;
2940;SDS011;1480;51.456;6.670;2024-01-15T06:00:25;10.67;;;5.57;;
2940;SDS011;1480;51.456;6.670;2024-01-15T06:02:52;8.40;;;5.30;;
2940;SDS011;1480;51.456;6.670;2024-01-15T06:05:18;7.60;;;4.47;;
2940;SDS011;1480;51.456;6.670;2024-01-15T06:07:46;9.47;;;5.20;;
2940;SDS011;1480;51.456;6.670;2024-01-15T06:10:13;8.03;;;4.93;;
2940;SDS011;1480;51.456;6.670;2024-01-15T06:12:40;11.20;;;4.87;;
2940;SDS011;1480;51.456;6.670;2024-01-15T06:15:07;8.83;;;4.70;;
2940;SDS011;1480;51.456;6.670;2024-01-15T06:17:34;10.00;;;4.80;;
2940;SDS011;1480;51.456;6.670;2024-01-15T06:20:00;7.03;;;4.10;;
2940;SDS011;1480;51.456;6.670;2024-01-15T06:22:28;9.43;;;4.40;;
2940;SDS011;1480;51.456;6.670;2024-01-15T06:24:56;8.20;;;4.20;;
2940;SDS011;1480;51.456;6.670;2024-01-15T06:27:23;10.23;;;4.77;;
2940;SDS011;1480;51.456;6.670;2024-01-15T06:29:50;5.03;;;3.17;;
2940;SDS011;1480;51.456;6.670;2024-01-15T06:32:16;6.53;;;3.27;;
2940;SDS011;1480;51.456;6.670;2024-01-15T06:34:43;10.00;;;3.90;;
2940;SDS011;1480;51.456;6.670;2024-01-15T06:37:10;5.50;;;3.00;;
2940;SDS011;1480;51.456;6.670;2024-01-15T06:39:36;5.33;;;4.10;;
2940;SDS011;1480;51.456;6.670;2024-01-15T06:42:05;3.83;;;2.60;;
2940;SDS011;1480;51.456;6.670;2024-01-15T06:44:31;3.30;;;2.40;;
2940;SDS011;1480;51.456;6.670;2024-01-15T06:46:58;3.80;;;3.07;;
2940;SDS011;1480;51.456;6.670;2024-01-15T06:49:27;4.47;;;3.17;;
2940;SDS011;1480;51.456;6.670;2024-01-15T06:51:54;3.10;;;1.83;;
2940;SDS011;1480;51.456;6.670;2024-01-15T06:54:21;3.53;;;2.70;;
2940;SDS011;1480;51.456;6.670;2024-01-15T06:56:48;2.67;;;2.30;;
2940;SDS011;1480;51.456;6.670;2024-01-15T06:59:16;4.13;;;2.20;;
2940;SDS011;1480;51.456;6.670;2024-01-15T07:01:43;5.80;;;2.80;;
2940;SDS011;1480;51.456;6.670;2024-01-15T07:04:10;4.33;;;3.37;;
2940;SDS011;1480;51.456;6.670;2024-01-15T07:06:36;5.87;;;2.53;;
2940;SDS011;1480;51.456;6.670;2024-01-15T07:09:04;4.33;;;2.30;;
2940;SDS011;1480;51.456;6.670;2024-01-15T07:11:31;5.93;;;3.20;;
2940;SDS011;1480;51.456;6.670;2024-01-15T07:13:58;7.50;;;2.73;;
2940;SDS011;1480;51.456;6.670;2024-01-15T07:16:26;4.57;;;2.73;;
2940;SDS011;1480;51.456;6.670;2024-01-15T07:18:52;6.80;;;3.60;;
2940;SDS011;1480;51.456;6.670;2024-01-15T07:21:20;7.63;;;3.80;;
2940;SDS011;1480;51.456;6.670;2024-01-15T07:23:46;9.53;;;3.40;;
2940;SDS011;1480;51.456;6.670;2024-01-15T07:26:13;4.40;;;2.70;;
2940;SDS011;1480;51.456;6.670;2024-01-15T07:28:40;3.30;;;2.73;;
2940;SDS011;1480;51.456;6.670;2024-01-15T07:31:06;6.70;;;3.40;;
2940;SDS011;1480;51.456;6.670;2024-01-15T07:33:35;5.83;;;3.50;;
2940;SDS011;1480;51.456;6.670;2024-01-15T07:36:02;7.87;;;3.47;;
2940;SDS011;1480;51.456;6.670;2024-01-15T07:38:29;7.43;;;4.17;;
2940;SDS011;1480;51.456;6.670;2024-01-15T07:40:55;8.37;;;4.80;;
2940;SDS011;1480;51.456;6.670;2024-01-15T07:43:22;8.50;;;6.13;;
2940;SDS011;1480;51.456;6.670;2024-01-15T07:45:49;8.27;;;5.20;;
2940;SDS011;1480;51.456;6.670;2024-01-15T07:48:15;17.40;;;6.50;;
2940;SDS011;1480;51.456;6.670;2024-01-15T07:50:43;11.07;;;6.50;;
2940;SDS011;1480;51.456;6.670;2024-01-15T07:53:10;13.87;;;9.30;;
2940;SDS011;1480;51.456;6.670;2024-01-15T07:55:37;18.60;;;8.50;;
2940;SDS011;1480;51.456;6.670;2024-01-15T07:58:04;12.80;;;7.40;;
2940;SDS011;1480;51.456;6.670;2024-01-15T08:00:31;13.33;;;7.60;;
2940;SDS011;1480;51.456;6.670;2024-01-15T08:02:57;12.23;;;7.00;;
2940;SDS011;1480;51.456;6.670;2024-01-15T08:05:24;12.50;;;8.07;;
2940;SDS011;1480;51.456;6.670;2024-01-15T08:07:52;14.93;;;8.87;;
2940;SDS011;1480;51.456;6.670;2024-01-15T08:10:19;16.80;;;9.70;;
2940;SDS011;1480;51.456;6.670;2024-01-15T08:12:46;15.90;;;9.23;;
2940;SDS011;1480;51.456;6.670;2024-01-15T08:15:12;15.73;;;9.47;;
2940;SDS011;1480;51.456;6.670;2024-01-15T08:17:39;14.80;;;9.57;;
2940;SDS011;1480;51.456;6.670;2024-01-15T08:20:06;15.47;;;7.83;;
2940;SDS011;1480;51.456;6.670;2024-01-15T08:22:33;14.50;;;8.97;;
2940;SDS011;1480;51.456;6.670;2024-01-15T08:25:01;14.90;;;10.10;;
2940;SDS011;1480;51.456;6.670;2024-01-15T08:27:29;15.93;;;9.10;;
2940;SDS011;1480;51.456;6.670;2024-01-15T08:29:55;16.73;;;8.40;;
2940;SDS011;1480;51.456;6.670;2024-01-15T08:32:22;12.50;;;8.37;;
2940;SDS011;1480;51.456;6.670;2024-01-15T08:34:49;14.37;;;8.77;;
2940;SDS011;1480;51.456;6.670;2024-01-15T08:37:17;17.90;;;8.20;;
2940;SDS011;1480;51.456;6.670;2024-01-15T08:39:44;16.23;;;8.10;;
2940;SDS011;1480;51.456;6.670;2024-01-15T08:42:12;12.60;;;8.90;;
2940;SDS011;1480;51.456;6.670;2024-01-15T08:44:39;12.80;;;8.33;;
2940;SDS011;1480;51.456;6.670;2024-01-15T08:47:08;17.77;;;8.90;;
2940;SDS011;1480;51.456;6.670;2024-01-15T08:49:34;11.60;;;8.13;;
2940;SDS011;1480;51.456;6.670;2024-01-15T08:52:02;17.10;;;8.70;;
2940;SDS011;1480;51.456;6.670;2024-01-15T08:54:28;14.80;;;8.27;;
2940;SDS011;1480;51.456;6.670;2024-01-15T08:56:55;13.27;;;7.80;;
2940;SDS011;1480;51.456;6.670;2024-01-15T08:59:24;11.40;;;7.13;;
2940;SDS011;1480;51.456;6.670;2024-01-15T09:01:51;9.47;;;5.97;;
2940;SDS011;1480;51.456;6.670;2024-01-15T09:04:18;9.83;;;6.13;;
2940;SDS011;1480;51.456;6.670;2024-01-15T09:06:45;9.10;;;6.77;;
2940;SDS011;1480;51.456;6.670;2024-01-15T09:09:12;10.50;;;6.40;;
2940;SDS011;1480;51.456;6.670;2024-01-15T09:11:39;11.50;;;6.40;;
2940;SDS011;1480;51.456;6.670;2024-01-15T09:14:06;7.33;;;6.17;;
2940;SDS011;1480;51.456;6.670;2024-01-15T09:16:35;9.33;;;4.83;;
2940;SDS011;1480;51.456;6.670;2024-01-15T09:19:03;8.53;;;5.63;;
2940;SDS011;1480;51.456;6.670;2024-01-15T09:21:29;10.93;;;5.50;;
2940;SDS011;1480;51.456;6.670;2024-01-15T09:23:56;6.57;;;4.93;;
2940;SDS011;1480;51.456;6.670;2024-01-15T09:26:23;7.73;;;5.33;;
2940;SDS011;1480;51.456;6.670;2024-01-15T09:28:50;7.50;;;4.23;;
2940;SDS011;1480;51.456;6.670;2024-01-15T09:31:17;7.20;;;4.60;;
2940;SDS011;1480;51.456;6.670;2024-01-15T09:33:46;8.57;;;4.30;;
2940;SDS011;1480;51.456;6.670;2024-01-15T09:36:13;7.60;;;3.87;;
2940;SDS011;1480;51.456;6.670;2024-01-15T09:38:40;8.53;;;4.80;;
2940;SDS011;1480;51.456;6.670;2024-01-15T09:41:06;6.73;;;4.07;;
2940;SDS011;1480;51.456;6.670;2024-01-15T09:43:33;7.80;;;4.10;;
2940;SDS011;1480;51.456;6.670;2024-01-15T09:46:00;6.87;;;3.67;;
2940;SDS011;1480;51.456;6.670;2024-01-15T09:48:27;5.30;;;3.20;;
2940;SDS011;1480;51.456;6.670;2024-01-15T09:50:55;5.00;;;3.60;;
2940;SDS011;1480;51.456;6.670;2024-01-15T09:53:24;6.93;;;4.20;;
2940;SDS011;1480;51.456;6.670;2024-01-15T09:55:51;6.93;;;4.20;;
2940;SDS011;1480;51.456;6.670;2024-01-15T09:58:19;5.73;;;3.77;;
2940;SDS011;1480;51.456;6.670;2024-01-15T10:00:46;4.00;;;3.10;;
2940;SDS011;1480;51.456;6.670;2024-01-15T10:03:15;6.50;;;3.83;;
2940;SDS011;1480;51.456;6.670;2024-01-15T10:05:42;4.40;;;3.27;;
2940;SDS011;1480;51.456;6.670;2024-01-15T10:08:11;6.73;;;3.73;;
2940;SDS011;1480;51.456;6.670;2024-01-15T10:10:38;5.33;;;3.93;;
2940;SDS011;1480;51.456;6.670;2024-01-15T10:13:04;7.93;;;3.80;;
2940;SDS011;1480;51.456;6.670;2024-01-15T10:15:33;6.37;;;3.47;;
2940;SDS011;1480;51.456;6.670;2024-01-15T10:18:02;3.17;;;2.77;;
2940;SDS011;1480;51.456;6.670;2024-01-15T10:20:29;8.10;;;3.47;;
2940;SDS011;1480;51.456;6.670;2024-01-15T10:22:58;5.23;;;3.10;;
2940;SDS011;1480;51.456;6.670;2024-01-15T10:25:26;5.47;;;3.57;;
2940;SDS011;1480;51.456;6.670;2024-01-15T10:27:59;4.67;;;2.93;;
2940;SDS011;1480;51.456;6.670;2024-01-15T10:30:27;3.67;;;2.77;;
2940;SDS011;1480;51.456;6.670;2024-01-15T10:32:57;4.37;;;3.20;;
2940;SDS011;1480;51.456;6.670;2024-01-15T10:35:26;4.83;;;2.73;;
2940;SDS011;1480;51.456;6.670;2024-01-15T10:37:53;8.03;;;2.63;;
2940;SDS011;1480;51.456;6.670;2024-01-15T10:40:20;5.23;;;2.60;;
2940;SDS011;1480;51.456;6.670;2024-01-15T10:42:48;4.13;;;3.33;;
2940;SDS011;1480;51.456;6.670;2024-01-15T10:45:14;6.33;;;3.90;;
2940;SDS011;1480;51.456;6.670;2024-01-15T10:47:41;3.60;;;2.73;;
2940;SDS011;1480;51.456;6.670;2024-01-15T10:50:09;5.27;;;3.47;;
2940;SDS011;1480;51.456;6.670;2024-01-15T10:52:37;5.63;;;3.80;;
2940;SDS011;1480;51.456;6.670;2024-01-15T10:55:07;4.70;;;3.23;;
2940;SDS011;1480;51.456;6.670;2024-01-15T10:57:35;6.70;;;3.90;;
2940;SDS011;1480;51.456;6.670;2024-01-15T11:00:03;10.43;;;3.53;;
2940;SDS011;1480;51.456;6.670;2024-01-15T11:02:31;6.67;;;3.63;;
2940;SDS011;1480;51.456;6.670;2024-01-15T11:04:58;6.73;;;4.60;;
2940;SDS011;1480;51.456;6.670;2024-01-15T11:07:26;6.77;;;3.83;;
2940;SDS011;1480;51.456;6.670;2024-01-15T11:09:53;9.63;;;3.80;;
2940;SDS011;1480;51.456;6.670;2024-01-15T11:12:19;6.87;;;4.47;;
2940;SDS011;1480;51.456;6.670;2024-01-15T11:14:48;5.20;;;4.00;;
2940;SDS011;1480;51.456;6.670;2024-01-15T11:17:17;4.60;;;3.90;;
2940;SDS011;1480;51.456;6.670;2024-01-15T11:19:44;5.77;;;4.17;;
2940;SDS011;1480;51.456;6.670;2024-01-15T11:25:12;6.40;;;4.17;;
2940;SDS011;1480;51.456;6.670;2024-01-15T11:27:40;5.73;;;3.87;;
2940;SDS011;1480;51.456;6.670;2024-01-15T11:30:08;5.07;;;3.73;;
2940;SDS011;1480;51.456;6.670;2024-01-15T11:32:37;5.00;;;4.23;;
2940;SDS011;1480;51.456;6.670;2024-01-15T11:35:06;6.43;;;3.40;;
2940;SDS011;1480;51.456;6.670;2024-01-15T11:40:35;4.10;;;3.07;;
2940;SDS011;1480;51.456;6.670;2024-01-15T11:43:04;5.07;;;3.13;;
2940;SDS011;1480;51.456;6.670;2024-01-15T11:45:31;4.30;;;2.50;;
2940;SDS011;1480;51.456;6.670;2024-01-15T11:50:47;9.00;;;3.03;;
2940;SDS011;1480;51.456;6.670;2024-01-15T11:53:16;6.70;;;2.83;;
2940;SDS011;1480;51.456;6.670;2024-01-15T11:55:44;4.90;;;2.50;;
2940;SDS011;1480;51.456;6.670;2024-01-15T11:58:13;3.90;;;2.70;;
2940;SDS011;1480;51.456;6.670;2024-01-15T12:00:42;2.33;;;1.90;;
2940;SDS011;1480;51.456;6.670;2024-01-15T12:03:10;5.57;;;2.60;;
2940;SDS011;1480;51.456;6.670;2024-01-15T12:05:38;5.97;;;3.10;;
2940;SDS011;1480;51.456;6.670;2024-01-15T12:08:07;4.47;;;2.83;;
2940;SDS011;1480;51.456;6.670;2024-01-15T12:10:35;2.43;;;2.23;;
2940;SDS011;1480;51.456;6.670;2024-01-15T12:13:04;3.77;;;2.53;;
2940;SDS011;1480;51.456;6.670;2024-01-15T12:15:32;3.40;;;2.30;;
2940;SDS011;1480;51.456;6.670;2024-01-15T12:17:59;7.03;;;3.00;;
2940;SDS011;1480;51.456;6.670;2024-01-15T12:20:27;13.13;;;3.13;;
2940;SDS011;1480;51.456;6.670;2024-01-15T12:22:56;6.57;;;3.30;;
2940;SDS011;1480;51.456;6.670;2024-01-15T12:25:23;7.63;;;2.80;;
2940;SDS011;1480;51.456;6.670;2024-01-15T12:27:52;5.23;;;3.23;;
2940;SDS011;1480;51.456;6.670;2024-01-15T12:30:19;6.87;;;2.60;;
2940;SDS011;1480;51.456;6.670;2024-01-15T12:32:45;2.97;;;2.17;;
2940;SDS011;1480;51.456;6.670;2024-01-15T12:35:13;3.37;;;2.37;;
2940;SDS011;1480;51.456;6.670;2024-01-15T12:37:40;6.03;;;3.27;;
2940;SDS011;1480;51.456;6.670;2024-01-15T12:40:09;5.17;;;2.90;;
2940;SDS011;1480;51.456;6.670;2024-01-15T12:42:36;4.47;;;2.63;;
2940;SDS011;1480;51.456;6.670;2024-01-15T12:45:03;5.40;;;2.33;;
2940;SDS011;1480;51.456;6.670;2024-01-15T12:47:32;5.70;;;2.83;;
2940;SDS011;1480;51.456;6.670;2024-01-15T12:49:59;5.97;;;3.23;;
2940;SDS011;1480;51.456;6.670;2024-01-15T12:52:28;4.67;;;2.43;;
2940;SDS011;1480;51.456;6.670;2024-01-15T12:54:56;5.73;;;2.93;;
2940;SDS011;1480;51.456;6.670;2024-01-15T12:57:24;3.47;;;2.40;;
2940;SDS011;1480;51.456;6.670;2024-01-15T12:59:50;3.53;;;2.20;;
2940;SDS011;1480;51.456;6.670;2024-01-15T13:02:17;4.20;;;2.93;;
2940;SDS011;1480;51.456;6.670;2024-01-15T13:04:44;6.90;;;2.67;;
2940;SDS011;1480;51.456;6.670;2024-01-15T13:07:11;5.73;;;2.57;;
2940;SDS011;1480;51.456;6.670;2024-01-15T13:09:38;7.10;;;2.87;;
2940;SDS011;1480;51.456;6.670;2024-01-15T13:12:05;6.43;;;3.07;;
2940;SDS011;1480;51.456;6.670;2024-01-15T13:14:33;4.13;;;2.70;;
2940;SDS011;1480;51.456;6.670;2024-01-15T13:17:00;7.80;;;2.77;;
2940;SDS011;1480;51.456;6.670;2024-01-15T13:19:28;6.40;;;2.87;;
2940;SDS011;1480;51.456;6.670;2024-01-15T13:21:55;4.13;;;2.80;;
2940;SDS011;1480;51.456;6.670;2024-01-15T13:24:24;5.97;;;2.77;;
2940;SDS011;1480;51.456;6.670;2024-01-15T13:26:50;6.60;;;3.17;;
2940;SDS011;1480;51.456;6.670;2024-01-15T13:29:17;8.63;;;4.50;;
2940;SDS011;1480;51.456;6.670;2024-01-15T13:31:46;3.47;;;3.10;;
2940;SDS011;1480;51.456;6.670;2024-01-15T13:34:12;5.00;;;3.47;;
2940;SDS011;1480;51.456;6.670;2024-01-15T13:36:39;6.23;;;3.57;;
2940;SDS011;1480;51.456;6.670;2024-01-15T13:39:06;2.60;;;2.40;;
2940;SDS011;1480;51.456;6.670;2024-01-15T13:41:34;3.20;;;2.83;;
2940;SDS011;1480;51.456;6.670;2024-01-15T13:44:01;6.83;;;2.73;;
2940;SDS011;1480;51.456;6.670;2024-01-15T13:46:28;3.57;;;2.70;;
2940;SDS011;1480;51.456;6.670;2024-01-15T13:48:57;2.50;;;2.00;;
2940;SDS011;1480;51.456;6.670;2024-01-15T13:51:23;3.27;;;2.00;;
2940;SDS011;1480;51.456;6.670;2024-01-15T13:53:50;2.87;;;2.30;;
2940;SDS011;1480;51.456;6.670;2024-01-15T13:56:18;3.57;;;1.70;;
2940;SDS011;1480;51.456;6.670;2024-01-15T13:58:45;3.50;;;2.10;;
2940;SDS011;1480;51.456;6.670;2024-01-15T14:01:13;2.10;;;1.90;;
2940;SDS011;1480;51.456;6.670;2024-01-15T14:03:39;2.70;;;2.00;;
2940;SDS011;1480;51.456;6.670;2024-01-15T14:06:07;3.77;;;2.40;;
2940;SDS011;1480;51.456;6.670;2024-01-15T14:08:35;4.70;;;1.80;;
2940;SDS011;1480;51.456;6.670;2024-01-15T14:11:02;3.47;;;1.83;;
2940;SDS011;1480;51.456;6.670;2024-01-15T14:13:31;2.47;;;2.20;;
2940;SDS011;1480;51.456;6.670;2024-01-15T14:15:57;4.73;;;2.00;;
2940;SDS011;1480;51.456;6.670;2024-01-15T14:18:26;2.97;;;1.73;;
2940;SDS011;1480;51.456;6.670;2024-01-15T14:20:52;3.10;;;2.17;;
2940;SDS011;1480;51.456;6.670;2024-01-15T14:23:21;2.80;;;2.17;;
2940;SDS011;1480;51.456;6.670;2024-01-15T14:25:48;1.93;;;1.70;;
2940;SDS011;1480;51.456;6.670;2024-01-15T14:28:14;2.77;;;2.10;;
2940;SDS011;1480;51.456;6.670;2024-01-15T14:30:41;4.47;;;1.80;;
2940;SDS011;1480;51.456;6.670;2024-01-15T14:33:08;5.50;;;2.60;;
2940;SDS011;1480;51.456;6.670;2024-01-15T14:35:34;6.10;;;1.77;;
2940;SDS011;1480;51.456;6.670;2024-01-15T14:38:01;2.30;;;1.73;;
2940;SDS011;1480;51.456;6.670;2024-01-15T14:40:29;1.90;;;1.70;;
2940;SDS011;1480;51.456;6.670;2024-01-15T14:42:56;2.27;;;2.07;;
2940;SDS011;1480;51.456;6.670;2024-01-15T14:45:22;5.43;;;2.00;;
2940;SDS011;1480;51.456;6.670;2024-01-15T14:47:52;2.53;;;2.33;;
2940;SDS011;1480;51.456;6.670;2024-01-15T14:50:19;2.03;;;1.70;;
2940;SDS011;1480;51.456;6.670;2024-01-15T14:52:45;4.47;;;2.27;;
2940;SDS011;1480;51.456;6.670;2024-01-15T14:55:12;4.77;;;2.07;;
2940;SDS011;1480;51.456;6.670;2024-01-15T14:57:40;3.10;;;2.47;;
2940;SDS011;1480;51.456;6.670;2024-01-15T15:00:07;3.93;;;2.33;;
2940;SDS011;1480;51.456;6.670;2024-01-15T15:02:34;4.23;;;2.07;;
2940;SDS011;1480;51.456;6.670;2024-01-15T15:05:01;3.33;;;2.00;;
2940;SDS011;1480;51.456;6.670;2024-01-15T15:07:28;2.93;;;2.53;;
2940;SDS011;1480;51.456;6.670;2024-01-15T15:09:55;2.40;;;1.80;;
2940;SDS011;1480;51.456;6.670;2024-01-15T15:12:21;4.13;;;2.40;;